Tiempo atmosférico en la estación meteorológica de Gran Canaria Aeropuerto, Las Palmas (24 m.)

Fecha
DESCASC
Temp. máxima en grados centígrados (hora)
DESCASC
Temp. mínima en grados centígrados (hora)
DESCASC
Temp. media en grados centígrados
DESCASC
Racha de viento máxima en m/sg (hora)
DESCASC
Velocidad máxima media en intervalos de 10 minutos(hora)
DESCASC
Precipitaciones diarias en mm
DESCASC
Precipitaciones de 00:00 a 06:00 en mm
DESCASC
Precipitaciones de 06:00 a 12:00 en mm
DESCASC
Precipitaciones de 12:00 a 18:00 en mm
DESCASC
Precipitaciones de 18:00 a 24:00 en mm
DESCASC
17-09-2017 26 (14:50) 21.5 (07:40) 23.8 15.28 (13:30) 12.5 (14:50) 0 0 0 0 0
16-09-2017 26.2 (14:40) 22.1 (08:00) 24.2 16.11 (15:10) 12.22 (14:50) 0 0 0 0 0
15-09-2017 27.3 (03:10) 22.6 (23:59) 24.9 15 (14:20) 11.67 (14:30) 0 0 0 0 0
14-09-2017 27.8 (13:40) 22.1 (00:00) 24.9 14.44 (11:50) 11.39 (12:10) 0 0 0 0 0
13-09-2017 25.8 (16:10) 20.3 (00:00) 23 8.89 (15:40) 6.11 (19:30) 0 0 0 0 0
12-09-2017 27.2 (13:30) 20.3 (00:00) 23.8 13.89 (12:40) 11.11 (12:20) 0 0 0 0 0
11-09-2017 27.3 (12:20) 20.1 (00:00) 23.7 15.28 (13:40) 12.78 (13:40) 0.2 0 0.2 0 0
10-09-2017 28.1 (15:00) 21.9 (00:00) 25 18.61 (14:00) 13.33 (15:40) 0 0 0 0 0
09-09-2017 27.4 (14:20) 21.8 (00:00) 24.6 16.39 (15:50) 12.22 (12:50) 0 0 0 0 0
08-09-2017 28 (15:30) 21.9 (00:00) 24.9 15.28 (12:40) 12.5 (12:10) 0 0 0 0 0
07-09-2017 27.1 (14:00) 22.5 (00:00) 24.8 18.06 (15:50) 13.89 (15:40) 0 0 0 0 0
06-09-2017 27.4 (14:40) 22.3 (00:00) 24.8 19.72 (16:50) 13.61 (13:50) 0 0 0 0 0
05-09-2017 27 (15:10) 22.2 (00:00) 24.6 18.89 (16:20) 14.17 (12:40) 0 0 0 0 0
04-09-2017 28.3 (15:20) 22.5 (00:00) 25.4 13.89 (01:30) 10.83 (15:10) 0 0 0 0 0
03-09-2017 27.4 (13:40) 22.7 (00:00) 25.1 16.94 (14:30) 13.89 (14:20) 0 0 0 0 0
02-09-2017 27.4 (14:30) 21.4 (00:00) 24.4 15 (14:30) 12.22 (16:20) 0 0 0 0 0
01-09-2017 27.3 (12:30) 21.7 (00:00) 24.5 15.28 (14:50) 12.22 (14:40) 0.1 0.1 0 0 0
31-08-2017 27.4 (12:40) 22.4 (00:00) 24.9 16.94 (05:40) 11.11 (11:40) 0 0 0 0 0
30-08-2017 27.9 (15:20) 22.3 (00:00) 25.1 16.11 (15:30) 12.5 (15:00) 0 0 0 0 0
29-08-2017 27.2 (14:00) 21.5 (00:00) 24.4 15.28 (15:40) 12.22 (16:40) 0 0 0 0 0
28-08-2017 26.5 (15:00) 22.3 (00:00) 24.4 16.11 (15:40) 13.06 (14:40) 0 0 0 0 0
27-08-2017 27.7 (14:20) 22.5 (00:00) 25.1 17.5 (15:30) 13.89 (16:00) 0 0 0 0 0
26-08-2017 28.8 (16:10) 22.6 (00:00) 25.7 16.39 (14:00) 13.33 (13:50) 0 0 0 0 0
25-08-2017 30.2 (16:30) 22.5 (00:00) 26.4 13.33 (15:10) 11.11 (15:00) 0 0 0 0 0
24-08-2017 29.3 (14:40) 22.3 (00:00) 25.8 14.44 (12:10) 11.67 (12:40) 0 0 0 0 0
23-08-2017 33.3 (11:30) 23.2 (00:00) 28.3 15.28 (15:20) 12.22 (13:50) 0 0 0 0 0
22-08-2017 -- (--) -- (--) -- -- (--) -- (--) -- 0 0 0 --

Gráficas

Temp. máximas Temp. mínimas Temp. medias Precipitaciones Rachas de viento máximas Velocidades máximas media en intervalos de 10 minutos

Datos horarios

Fecha y hora oficial Temperatura (ºC) Velocidad del viento (km/h) Dirección del viento Racha (km/h) Dirección de racha Precipitación (mm) Presión (hPa) Tendencia (hPa) Humedad (%)
2017-09-20 23:00:00 22.7 23 Norte 39 Norte 0 1014.4 1.3 67
2017-09-20 22:00:00 22.7 23 Norte 37 Norte 0 1014.2 1.1 70
2017-09-20 21:00:00 22.8 20 Norte 35 Norte 0 1013.5 0.5 70
2017-09-20 20:00:00 23.1 22 Norte 41 Norte 0 1013.1 0.2 68
2017-09-20 19:00:00 23.9 26 Norte 50 Norte 0 1013.1 0.4 65
2017-09-20 18:00:00 25 33 Norte 52 Norte 0 1013 -0.3 59
2017-09-20 17:00:00 24.5 45 Norte 68 Nordeste 0 1012.9 -1 68
2017-09-20 16:00:00 24.6 49 Norte 58 Norte 0 1012.7 -2 70
2017-09-20 15:00:00 25.3 45 Norte 58 Nordeste 0 1013.3 -1.9 65
2017-09-20 14:00:00 25.1 45 Norte 54 Norte 0 1013.9 -1.7 68
2017-09-20 13:00:00 25 41 Norte 50 Norte 0 1014.7 -0.7 66
2017-09-20 12:00:00 24 35 Norte 48 Norte 0 1015.2 0.2 71
2017-09-20 11:00:00 24 26 Norte 37 Norte 0 1015.6 1.2 69
2017-09-20 10:00:00 23.2 25 Norte 41 Norte 0 1015.4 1.3 74
2017-09-20 09:00:00 22.2 22 Norte 35 Norte 0 1015 1.3 78
2017-09-20 08:00:00 21.8 26 Norte 39 Norte 0 1014.4 0.3 78
2017-09-20 07:00:00 21.7 23 Norte 37 Norte 0 1014.1 -0.3 80
2017-09-20 06:00:00 21.5 23 Norte 35 Norte 0 1013.7 -1.1 82
2017-09-20 05:00:00 21.4 23 Norte 37 Norte 0 1014.1 -1.1 84
2017-09-20 04:00:00 21.4 24 Norte 39 Norte 0 1014.4 -1.3 85
2017-09-20 03:00:00 21.5 24 Norte 39 Norte 0 1014.8 -1.1 85
2017-09-20 02:00:00 21.6 25 Norte 39 Norte 0 1015.2 -0.9 84
2017-09-20 01:00:00 21.7 27 Norte 42 Norte 0 1015.7 -0.2 84
2017-09-20 00:00:00 21.8 26 Norte 42 Norte 0 1015.9 0.6 83
2017-09-19 23:00:00 21.9 26 Norte 45 Norte 0 1016.1 1 81
2017-09-19 22:00:00 22 28 Norte 42 Norte 0 1015.9 1.1 81
2017-09-19 21:00:00 22.1 26 Norte 42 Norte 0 1015.3 0.3 80
2017-09-19 20:00:00 22.4 28 Norte 45 Norte 0 1015.1 0 78
2017-09-19 19:00:00 23.4 26 Norte 42 Norte 0 1014.8 -0.6 72
2017-09-19 18:00:00 24 31 Norte 41 Norte 0 1015 -0.9 70
2017-09-19 17:00:00 24.2 36 Norte 42 Norte 0 1015.1 -1.2 69
2017-09-19 16:00:00 24.8 33 Nordeste 45 Norte 0 1015.4 -1.7 66
2017-09-19 15:00:00 24.4 33 Norte 42 Norte 0 1015.9 -1.4 67
2017-09-19 14:00:00 24.8 35 Nordeste 46 Norte 0 1016.3 -1.3 65
2017-09-19 13:00:00 24.4 37 Nordeste 48 Nordeste 0 1017.1 -- 67
2017-09-19 12:00:00 24.4 35 Norte 48 Nordeste 0 1017.3 0.3 66
2017-09-19 11:00:00 23.3 31 Norte -- -- -- 1017.6 1.2 71
2017-09-19 10:00:00 -- -- -- -- -- -- -- -- --
2017-09-19 09:00:00 21.7 24 Norte 32 Norte 0 1017 1.8 77
2017-09-19 08:00:00 21.2 20 Norte 33 Norte 0 1016.4 1 80
2017-09-19 07:00:00 21 19 Norte 42 Norte 0 1015.5 0.3 81
2017-09-19 06:00:00 21 22 Norte 33 Norte 0 1015.2 -0.6 81
2017-09-19 05:00:00 21.1 20 Norte 35 Norte 0 1015.4 -0.8 82
2017-09-19 04:00:00 21.1 24 Norte 35 Norte 0 1015.2 -1.4 81
2017-09-19 03:00:00 21.2 22 Norte 37 Norte 0 1015.8 -1.1 81
2017-09-19 02:00:00 21.4 23 Norte 37 Norte 0 1016.2 -0.9 81
2017-09-19 01:00:00 21.6 23 Norte 37 Norte 0 1016.6 0.3 82
2017-09-19 00:00:00 21.7 23 Norte 37 Norte 0 1016.9 0.8 81
2017-09-18 23:00:00 21.8 26 Norte 41 Norte 0 1017.1 1.4 81
2017-09-18 22:00:00 21.9 24 Norte 39 Norte 0 1016.3 1.2 82
2017-09-18 21:00:00 22.2 25 Norte 37 Norte 0 1016.1 1.1 81
2017-09-18 20:00:00 22.6 26 Norte 45 Norte 0 1015.7 0.9 79
2017-09-18 19:00:00 23.3 28 Norte 46 Norte 0 1015.1 0 75
2017-09-18 18:00:00 24.2 35 Norte 48 Norte 0 1015 -1 72
2017-09-18 17:00:00 25.2 35 Norte 48 Norte 0 1014.8 -1.9 67
2017-09-18 16:00:00 25.7 38 Norte 50 Nordeste 0 1015.1 -1.8 63
2017-09-18 15:00:00 25.6 33 Norte 45 Nordeste 0 1016 -1.2 63
2017-09-18 14:00:00 25.5 30 Norte 46 Nordeste 0 1016.7 -0.1 63
2017-09-18 13:00:00 24.9 36 Norte 48 Nordeste 0 1016.9 0.7 66
2017-09-18 12:00:00 24.7 38 Norte 50 Norte -- 1017.2 1.4 66
2017-09-18 11:00:00 23.4 27 Norte 46 Norte 0 1016.8 1.5 69
2017-09-18 10:00:00 22.7 32 Norte 42 Norte 0 1016.2 1.2 72
2017-09-18 09:00:00 21.8 27 Norte 41 Norte 0 1015.8 1 75
2017-09-18 08:00:00 21.4 24 Norte 39 Norte 0 1015.3 0.8 77
2017-09-18 07:00:00 21.4 26 Norte 41 Norte 0 1015 0.4 79
2017-09-18 06:00:00 21.4 22 Norte 39 Norte 0 1014.8 0.1 78
2017-09-18 05:00:00 21.4 23 Norte 37 Norte 0 1014.5 -0.6 78
2017-09-18 04:00:00 21.5 24 Norte 39 Norte 0 1014.6 -0.7 78
2017-09-18 03:00:00 21.5 26 Norte 42 Norte 0 1014.7 -0.9 78
2017-09-18 02:00:00 21.6 27 Norte 45 Norte 0 1015.1 -0.4 78
2017-09-18 01:00:00 21.8 25 Norte 42 Norte 0 1015.3 0.1 78
2017-09-18 00:00:00 22 26 Norte 39 Norte 0 1015.6 1.2 79
2017-09-17 23:00:00 22.2 26 Norte 41 Norte 0 1015.5 1.8 78
2017-09-17 22:00:00 22.2 26 Norte 41 Norte 0 1015.2 2 77
2017-09-17 21:00:00 22.3 26 Norte 41 Norte 0 1014.4 1.3 77
2017-09-17 20:00:00 22.5 27 Norte 42 Norte 0 1013.7 0.7 76
2017-09-17 19:00:00 23.2 29 Norte 48 Norte 0 1013.2 0.4 73
2017-09-17 18:00:00 24 34 Norte 50 Norte 0 1013.1 0.2 68
2017-09-17 17:00:00 24.7 39 Norte 55 Norte 0 1013 -0.2 65
2017-09-17 16:00:00 25.2 40 Norte 54 Norte 0 1012.8 -1 63
2017-09-17 15:00:00 25.6 44 Norte 55 Norte 0 1012.9 -0.8 61
2017-09-17 14:00:00 25.3 40 Norte 55 Norte 0 1013.2 -0.7 63
2017-09-17 13:00:00 25.2 36 Norte 52 Norte 0 1013.8 0.5 63
2017-09-17 12:00:00 24.6 36 Norte 52 Nordeste 0 1013.7 0.8 64
2017-09-17 11:00:00 23.3 32 Norte 46 Norte 0 1013.9 1.9 67
2017-09-17 10:00:00 23 33 Norte 48 Norte 0 1013.3 1.5 68
2017-09-17 09:00:00 22 26 Norte 41 Norte 0 1012.9 1.2 74
2017-09-17 08:00:00 21.5 24 Norte 41 Norte 0 1012 0.5 77
2017-09-17 07:00:00 21.6 28 Norte 42 Norte 0 1011.8 0.5 78
2017-09-17 06:00:00 21.7 24 Norte 37 Norte 0 1011.7 0 79
2017-09-17 05:00:00 21.7 22 Norte 37 Norte 0 1011.5 -0.3 78
2017-09-17 04:00:00 21.7 25 Norte 41 Norte 0 1011.3 -0.7 78
2017-09-17 03:00:00 21.9 26 Norte 42 Norte 0 1011.7 -0.5 78
2017-09-17 02:00:00 22 25 Norte 45 Norte 0 1011.8 -0.5 79
2017-09-17 01:00:00 22.1 32 Norte 42 Norte 0 1012 0.1 79
2017-09-17 00:00:00 22.3 27 Norte 41 Norte 0 1012.2 1.1 79
2017-09-16 23:00:00 22.4 28 Norte 41 Norte 0 1012.3 1.8 79
2017-09-16 22:00:00 22.4 24 Norte 37 Norte 0 1011.9 1.8 79
2017-09-16 21:00:00 22.5 25 Norte 39 Norte 0 1011.1 1.2 78
2017-09-16 20:00:00 22.7 25 Norte 39 Norte 0 1010.5 0.6 77
2017-09-16 19:00:00 23.6 26 Norte 41 Norte 0 1010.1 0.5 73
2017-09-16 18:00:00 24.5 30 Norte 45 Norte 0 1009.9 0.5 69
2017-09-16 17:00:00 25.4 32 Norte 48 Norte 0 1009.9 -0.1 66
2017-09-16 16:00:00 25.1 41 Norte 58 Norte 0 1009.6 -1.2 66
2017-09-16 15:00:00 25.6 42 Norte 55 Norte 0 1009.4 -1.8 65
2017-09-16 14:00:00 24.5 37 Norte 50 Norte 0 1010 -1 69
2017-09-16 13:00:00 24.5 35 Norte 50 Norte 0 1010.8 0.1 70
2017-09-16 12:00:00 25.2 39 Norte 52 Norte 0 1011.2 1.3 67
2017-09-16 11:00:00 24.7 32 Norte 48 Norte 0 1011 2.1 68
2017-09-16 10:00:00 23.4 28 Norte 45 Norte 0 1010.7 1.8 77
2017-09-16 09:00:00 22.6 26 Norte 39 Norte 0 1009.9 1.6 81
2017-09-16 08:00:00 22.1 27 Norte 39 Norte 0 1008.9 1.2 84
2017-09-16 07:00:00 22.2 23 Norte 39 Norte 0 1008.9 0.6 84
2017-09-16 06:00:00 22.2 20 Norte 37 Norte 0 1008.3 -1 85
2017-09-16 05:00:00 22.3 23 Norte 41 Norte 0 1007.7 -1.3 86
2017-09-16 04:00:00 22.3 25 Norte 41 Norte 0 1008.3 -1 86
2017-09-16 03:00:00 22.5 21 Norte 39 Norte 0 1009.3 -0.3 86
2017-09-16 02:00:00 22.5 28 Norte 42 Norte 0 1009 -0.8 85
2017-09-16 01:00:00 22.6 26 Norte 41 Norte 0 1009.3 0 84
2017-09-16 00:00:00 22.7 24 Norte 37 Norte 0 1009.6 0.3 85
2017-09-15 23:00:00 22.9 24 Norte 39 Nordeste 0 1009.8 0.8 85
2017-09-15 22:00:00 23.1 26 Norte 37 Norte 0 1009.3 0.4 81
2017-09-15 21:00:00 23.1 26 Norte 42 Norte 0 1009.3 0.2 82
2017-09-15 20:00:00 23.9 28 Norte 48 Norte 0 1009 -0.4 79
2017-09-15 19:00:00 24.1 30 Norte 50 Norte 0 1008.9 -0.6 77
2017-09-15 18:00:00 24.7 29 Norte 42 Norte 0 1009.1 -1 75
2017-09-15 17:00:00 25.1 29 Norte 45 Norte 0 1009.4 -0.7 74
2017-09-15 16:00:00 25.7 33 Norte 54 Norte 0 1009.5 -1.4 70
2017-09-15 15:00:00 25.7 31 Norte 54 Norte 0 1010.1 -1 70
2017-09-15 14:00:00 26.9 33 Norte 48 Norte 0 1010.1 -0.7 65
2017-09-15 13:00:00 26.3 29 Norte 46 Norte 0 1010.9 0.7 67
2017-09-15 12:00:00 25.6 31 Norte 46 Norte 0 1011.1 1.5 71
2017-09-15 11:00:00 24 24 Norte 39 Norte 0 1010.8 1.3 79
2017-09-15 10:00:00 24 26 Norte 39 Norte 0 1010.2 0.8 77
2017-09-15 09:00:00 23.6 22 Norte 35 Norte 0 1009.6 0.2 77
2017-09-15 08:00:00 23.5 20 Norte 33 Norte 0 1009.5 0.9 76
2017-09-15 07:00:00 24.3 17 Norte 30 Norte 0 1009.4 0.5 65
2017-09-15 06:00:00 24.6 16 Norte 39 Norte 0 1009.4 -0.1 61
2017-09-15 05:00:00 25.6 26 Norte 39 Norte 0 1008.6 -1.8 54
2017-09-15 04:00:00 25.2 23 Norte 37 Norte 0 1008.9 -1.7 59
2017-09-15 03:00:00 26.8 18 Norte 30 Norte 0 1009.5 -1.1 46
2017-09-15 02:00:00 25.7 17 Norte 28 Norte 0 1010.4 -0.7 55
2017-09-15 01:00:00 25.1 18 Norte 32 Norte 0 1010.6 -0.3 66
2017-09-15 00:00:00 25 18 Norte 30 Norte 0 1010.6 0.2 64
2017-09-14 23:00:00 23.6 20 Norte 35 Norte 0 1011.1 0.7 82
2017-09-14 22:00:00 23.5 25 Norte 37 Norte 0 1010.9 0.8 84
2017-09-14 21:00:00 23.7 23 Norte 37 Norte 0 1010.4 0.1 83
2017-09-14 20:00:00 24.3 22 Norte 37 Norte 0 1010.4 0 79
2017-09-14 19:00:00 25.3 26 Norte 42 Norte 0 1010.1 -0.7 74
2017-09-14 18:00:00 25.8 28 Norte 45 Norte 0 1010.3 -0.8 73
2017-09-14 17:00:00 26.4 27 Norte 42 Norte 0 1010.4 -0.9 70
2017-09-14 16:00:00 27.2 32 Norte 45 Nordeste 0 1010.8 -1.2 67
2017-09-14 15:00:00 27.2 37 Norte 46 Nordeste 0 1011.1 -1.1 67
2017-09-14 14:00:00 27 35 Norte 45 Norte 0 1011.3 -0.7 65
2017-09-14 13:00:00 26.5 34 Norte 50 Norte 0 1012 0.4 64
2017-09-14 12:00:00 27.3 40 Norte 52 Norte 0 1012.2 0.8 59
2017-09-14 11:00:00 25.9 26 Norte 45 Norte 0 1012 1.2 67
2017-09-14 10:00:00 25.1 30 Norte 42 Norte 0 1011.6 0.8 68
2017-09-14 09:00:00 23.3 24 Norte 45 Norte 0 1011.4 0.9 76
2017-09-14 08:00:00 22.4 22 Norte 42 Norte 0 1010.8 0.2 79
2017-09-14 07:00:00 22.3 18 Norte 26 Norte 0 1010.8 -0.3 77
2017-09-14 06:00:00 22.4 14 Norte 26 Norte 0 1010.5 -0.9 73
2017-09-14 05:00:00 22.2 17 Norte 26 Norte 0 1010.6 -1.9 80
2017-09-14 04:00:00 22.6 18 Norte 26 Norte 0 1011.1 -1.8 81
2017-09-14 03:00:00 23.3 14 Norte 28 Norte 0 1011.4 -1.9 66
2017-09-14 02:00:00 22.2 13 Norte 22 Norte 0 1012.5 -0.8 85
2017-09-14 01:00:00 22.5 15 Norte 22 Norte 0 1012.9 -0.7 82
2017-09-14 00:00:00 22.9 14 Norte 26 Norte 0 1013.3 0.3 83
2017-09-13 23:00:00 23 17 Norte 26 Norte 0 1013.3 0.9 82
2017-09-13 22:00:00 23.3 20 Norte 30 Norte 0 1013.6 1.5 80
2017-09-13 21:00:00 23.6 20 Norte 28 Norte 0 1013 1 78
2017-09-13 20:00:00 24.1 21 Norte 26 Norte 0 1012.4 0.7 74
2017-09-13 19:00:00 25 19 Nordeste 28 Nordeste 0 1012.1 0.3 69
2017-09-13 18:00:00 25.3 21 Nordeste 28 Nordeste 0 1012 -0.5 71
2017-09-13 17:00:00 25.5 17 Nordeste 26 Nordeste 0 1011.7 -1.5 70
2017-09-13 16:00:00 25.6 17 Nordeste 32 Nordeste 0 1011.8 -1.7 70
2017-09-13 15:00:00 25.3 14 Este 30 Este 0 1012.5 -1 71
2017-09-13 14:00:00 25.3 14 Este 24 Nordeste 0 1013.2 -0.1 70
2017-09-13 13:00:00 25.2 17 Nordeste 24 Este 0 1013.5 0.7 67
2017-09-13 12:00:00 25.1 14 Nordeste 22 Este 0 1013.5 1.4 67
2017-09-13 11:00:00 24.9 10 Nordeste 18 Nordeste 0 1013.3 1.6 62
2017-09-13 10:00:00 24 12 Nordeste 18 Norte 0 1012.8 1.5 67
2017-09-13 09:00:00 22.6 7 Norte 13 Norte 0 1012.1 1.7 68
2017-09-13 08:00:00 20.3 9 Noroeste 11 Noroeste 0 1011.7 1.3 74
2017-09-13 07:00:00 20.6 5 Norte 15 Norte 0 1011.3 0.5 74
2017-09-13 06:00:00 20.5 9 Norte 15 Norte 0 1010.4 -1 73
2017-09-13 05:00:00 20.8 12 Noroeste 17 Noroeste 0 1010.4 -1.2 79
2017-09-13 04:00:00 20.6 8 Noroeste 13 Norte 0 1010.8 -1 78
2017-09-13 03:00:00 21.7 8 Norte 17 Norte 0 1011.4 -0.9 80
2017-09-13 02:00:00 22.3 13 Norte 21 Norte 0 1011.6 -0.3 76
2017-09-13 01:00:00 21.6 10 Norte 15 Norte 0 1011.8 0.4 77
2017-09-13 00:00:00 22.1 10 Norte 21 Norte 0 1012.3 1.6 77
2017-09-12 23:00:00 22.4 12 Norte 24 Norte 0 1011.9 1.6 77
2017-09-12 22:00:00 22.7 14 Norte 28 Norte 0 1011.4 1.1 76
2017-09-12 21:00:00 22.9 18 Norte 32 Norte 0 1010.7 0.7 78
2017-09-12 20:00:00 23.5 22 Norte 35 Norte 0 1010.3 0.9 74
2017-09-12 19:00:00 24.6 29 Norte 39 Nordeste 0 1010.3 0.5 67
2017-09-12 18:00:00 25.2 35 Norte 45 Norte 0 1010 -0.4 65
2017-09-12 17:00:00 26.1 36 Nordeste 45 Norte 0 1009.4 -1.5 61
2017-09-12 16:00:00 26.6 33 Norte 45 Norte 0 1009.8 -1.1 58
2017-09-12 15:00:00 26.5 36 Nordeste 46 Nordeste 0 1010.4 -0.5 58
2017-09-12 14:00:00 26.4 37 Nordeste 48 Nordeste 0 1010.9 -0.5 57
2017-09-12 13:00:00 26.4 39 Nordeste 50 Nordeste 0 1010.9 0 58
2017-09-12 12:00:00 26.2 35 Norte 46 Norte 0 1010.9 0.4 58
2017-09-12 11:00:00 24.7 22 Norte 35 Norte 0 1011.4 1.4 59
2017-09-12 10:00:00 23.3 18 Norte 32 Norte 0 1010.9 1.3 65
2017-09-12 09:00:00 22.1 16 Norte 24 Norte 0 1010.5 1.2 67
2017-09-12 08:00:00 20.6 12 Norte 21 Norte 0 1010 1 69
2017-09-12 07:00:00 20.4 11 Norte 21 Norte 0 1009.6 0.2 74
2017-09-12 06:00:00 20.5 10 Norte 18 Norte 0 1009.3 -0.6 74
2017-09-12 05:00:00 20.3 10 Norte 17 Norte 0 1009 -1.8 78
2017-09-12 04:00:00 20.7 10 Norte 21 Norte 0 1009.4 -1.6 80
2017-09-12 03:00:00 21.4 14 Norte 24 Norte 0 1009.9 -1.5 80
2017-09-12 02:00:00 21.3 14 Norte 22 Norte 0 1010.8 -0.4 82
2017-09-12 01:00:00 22.2 13 Norte 26 Norte 0 1011 0.3 78
2017-09-12 00:00:00 22.3 12 Norte 24 Norte 0 1011.4 1.3 81
2017-09-11 23:00:00 22.9 14 Norte 32 Noroeste 0 1011.2 1.3 74
2017-09-11 22:00:00 22.9 19 Norte 32 Norte 0 1010.7 0.8 73
2017-09-11 21:00:00 22.8 17 Norte 35 Norte 0 1010.1 0.6 75
2017-09-11 20:00:00 23.2 21 Norte 39 Norte 0 1009.9 0.6 74
2017-09-11 19:00:00 23.2 24 Norte 39 Norte 0 1009.9 0.2 76
2017-09-11 18:00:00 25.1 22 Norte 46 Norte 0 1009.5 -0.4 70
2017-09-11 17:00:00 26.3 22 Norte 46 Norte 0 1009.3 -1.1 61
2017-09-11 16:00:00 26.6 23 Norte 48 Norte 0 1009.7 -1 59
2017-09-11 15:00:00 26.8 39 Norte 54 Nordeste 0 1009.9 -1.3 64
2017-09-11 14:00:00 25.6 39 Norte 55 Norte 0 1010.4 -0.7 69
2017-09-11 13:00:00 26.2 39 Nordeste 48 Norte 0 1010.7 -0.4 67
2017-09-11 12:00:00 26.5 24 Norte 39 Norte 0 1011.2 0.5 58
2017-09-11 11:00:00 24.8 20 Norte 30 Norte 0 1011.1 0.7 66
2017-09-11 10:00:00 22.6 16 Norte 30 Norte 0 1011.1 0.9 78
2017-09-11 09:00:00 20.6 19 Noroeste 32 Noroeste 0.1 1010.7 0.9 89
2017-09-11 08:00:00 20.3 17 Norte 33 Nordeste 0.1 1010.4 0.6 89
2017-09-11 07:00:00 22 14 Norte 33 Norte 0 1010.2 0 75
2017-09-11 06:00:00 21.8 21 Norte 32 Norte 0 1009.8 -0.6 78
2017-09-11 05:00:00 21.6 17 Norte 37 Noroeste 0 1009.8 -0.9 81
2017-09-11 04:00:00 21.2 21 Norte 33 Noroeste 0 1010.2 -1.1 83
2017-09-11 03:00:00 21.1 24 Noroeste 41 Noroeste 0 1010.4 -1.2 84
2017-09-11 02:00:00 21.6 21 Norte 37 Norte 0 1010.7 -1 80
2017-09-11 01:00:00 22.4 20 Norte 33 Norte 0 1011.3 0 74
2017-09-11 00:00:00 22.3 21 Norte 39 Norte 0 1011.6 0.5 75
2017-09-10 23:00:00 23.1 23 Norte 42 Noroeste 0 1011.7 1.1 70
2017-09-10 22:00:00 23 24 Norte 45 Norte 0 1011.3 0.3 70
2017-09-10 21:00:00 23.5 21 Norte 45 Norte 0 1011.1 0.3 70
2017-09-10 20:00:00 24.1 26 Norte 45 Norte 0 1010.6 -0.3 62
2017-09-10 19:00:00 24.8 35 Norte 52 Norte 0 1011 -0.3 58
2017-09-10 18:00:00 25.6 36 Norte 55 Norte 0 1010.8 -0.8 51
2017-09-10 17:00:00 26 39 Norte 58 Norte 0 1010.9 -1.5 51
2017-09-10 16:00:00 26.2 42 Norte 63 Norte 0 1011.3 -1.3 59
2017-09-10 15:00:00 27.6 38 Norte 55 Norte 0 1011.6 -1.7 49
2017-09-10 14:00:00 26.9 36 Norte 67 Norte 0 1012.4 -0.8 49
2017-09-10 13:00:00 26.3 32 Norte 58 Norte 0 1012.6 -0.5 49
2017-09-10 12:00:00 25.2 35 Norte 58 Norte 0 1013.3 0.6 53
2017-09-10 11:00:00 24.8 28 Norte 46 Norte 0 1013.2 1 55
2017-09-10 10:00:00 24 32 Norte 45 Norte 0 1013.1 1.3 59
2017-09-10 09:00:00 22.4 23 Norte 37 Norte 0 1012.7 0.8 65
2017-09-10 08:00:00 22 25 Norte 42 Norte 0 1012.2 0.4 67
2017-09-10 07:00:00 22.1 25 Norte 42 Norte 0 1011.8 0 70
2017-09-10 06:00:00 22.1 22 Norte 42 Norte 0 1011.9 -0.4 71
2017-09-10 05:00:00 22 27 Norte 45 Norte 0 1011.8 -1.3 72
2017-09-10 04:00:00 22 28 Norte 46 Norte 0 1011.8 -1.7 73
2017-09-10 03:00:00 22.2 27 Norte 46 Norte 0 1012.3 -1.6 73
2017-09-10 02:00:00 22.1 23 Norte 41 Norte 0 1013.1 -0.9 72
2017-09-10 01:00:00 22.3 24 Norte 41 Norte 0 1013.5 0.2 72
2017-09-10 00:00:00 22.5 28 Norte 46 Norte 0 1013.9 1.4 73
2017-09-09 23:00:00 22.9 32 Norte 50 Norte 0 1014 1.7 72
2017-09-09 22:00:00 22.9 31 Norte 48 Norte 0 1013.3 1.2 73
2017-09-09 21:00:00 23.1 30 Norte 52 Norte 0 1012.5 0.3 73
2017-09-09 20:00:00 23.7 29 Norte 48 Norte 0 1012.3 0.1 70
2017-09-09 19:00:00 24.5 31 Norte 52 Norte 0 1012.1 0.1 67
2017-09-09 18:00:00 25.5 41 Norte 54 Norte 0 1012.2 0 65
2017-09-09 17:00:00 26.3 42 Norte 55 Norte 0 1012.2 -0.3 64
2017-09-09 16:00:00 26.8 38 Norte 59 Norte 0 1012 -0.9 62
2017-09-09 15:00:00 27.3 42 Norte 54 Norte 0 1012.2 -1 61
2017-09-09 14:00:00 26.6 40 Norte 54 Norte 0 1012.5 -0.7 63
2017-09-09 13:00:00 26.3 39 Norte 58 Norte 0 1012.9 0.1 63
2017-09-09 12:00:00 26.1 37 Norte 50 Norte 0 1013.2 1 62
2017-09-09 11:00:00 25 27 Norte 45 Norte 0 1013.2 1.5 67
2017-09-09 10:00:00 23.8 27 Norte 42 Norte 0 1012.8 1.9 72
2017-09-09 09:00:00 22.6 18 Norte 33 Norte 0 1012.2 1.9 78
2017-09-09 08:00:00 21.8 14 Norte 39 Norte 0 1011.7 1.6 80
2017-09-09 07:00:00 21.8 22 Norte 41 Norte 0 1010.9 1 81
2017-09-09 06:00:00 21.9 27 Norte 45 Norte 0 1010.3 0.2 81
2017-09-09 05:00:00 21.8 29 Norte 45 Norte 0 1010.1 -0.8 81
2017-09-09 04:00:00 21.9 27 Norte 48 Norte 0 1009.9 -1.3 81
2017-09-09 03:00:00 21.9 29 Norte 45 Norte 0 1010.1 -1.3 79
2017-09-09 02:00:00 22.1 26 Norte 42 Norte 0 1010.9 -0.4 79
2017-09-09 01:00:00 22.2 27 Norte 42 Norte 0 1011.2 0.3 78
2017-09-09 00:00:00 22.4 28 Norte 46 Norte 0 1011.4 1.1 78
2017-09-08 23:00:00 22.6 26 Norte 41 Norte 0 1011.3 1.5 77
2017-09-08 22:00:00 22.7 27 Norte 42 Norte 0 1010.9 1.7 76
2017-09-08 21:00:00 23.1 26 Norte 48 Norte 0 1010.3 1.3 75
2017-09-08 20:00:00 23.8 28 Norte 50 Norte 0 1009.8 0.4 71
2017-09-08 19:00:00 25.1 28 Norte 50 Norte 0 1009.2 -0.1 66
2017-09-08 18:00:00 25.7 35 Norte 54 Norte 0 1009 -0.7 64
2017-09-08 17:00:00 26.8 39 Norte 55 Norte 0 1009.4 -0.7 60
2017-09-08 16:00:00 27.4 36 Norte 50 Norte 0 1009.3 -1.5 58
2017-09-08 15:00:00 27.7 36 Norte 50 Norte 0 1009.7 -1.2 58
2017-09-08 14:00:00 27.1 29 Norte 48 Nordeste 0 1010.1 -0.8 60
2017-09-08 13:00:00 26.1 35 Norte 55 Norte 0 1010.8 -0.1 63
2017-09-08 12:00:00 25.5 39 Norte 50 Norte 0 1010.9 1 65
2017-09-08 11:00:00 24.6 35 Norte 48 Norte 0 1010.9 1.6 69
2017-09-08 10:00:00 23.2 24 Norte 45 Norte 0 1010.9 2 73
2017-09-08 09:00:00 22.5 21 Norte 35 Norte 0 1009.9 1.1 76
2017-09-08 08:00:00 21.9 22 Norte 45 Norte 0 1009.3 0.9 78
2017-09-08 07:00:00 22 30 Norte 48 Norte 0 1008.9 0.4 77
2017-09-08 06:00:00 22 25 Norte 46 Norte 0 1008.8 0 77
2017-09-08 05:00:00 22.1 29 Norte 52 Norte 0 1008.4 -0.8 77
2017-09-08 04:00:00 22.1 29 Norte 46 Norte 0 1008.5 -1.3 78
2017-09-08 03:00:00 22.2 31 Norte 45 Norte 0 1008.8 -1.3 77
2017-09-08 02:00:00 22.3 29 Norte 50 Norte 0 1009.2 -0.8 76
2017-09-08 01:00:00 22.5 29 Norte 46 Norte 0 1009.8 0.4 76
2017-09-08 00:00:00 22.8 27 Norte 52 Norte 0 1010.1 1.1 75
2017-09-07 23:00:00 23 28 Norte 55 Norte 0 1010 1.3 77
2017-09-07 22:00:00 23.1 34 Norte 55 Norte 0 1009.4 0.6 72
2017-09-07 21:00:00 23.3 37 Norte 55 Norte 0 1009 0.4 74
2017-09-07 20:00:00 23.8 28 Norte 55 Norte 0 1008.7 -0.1 69
2017-09-07 19:00:00 24.5 30 Norte 54 Norte 0 1008.8 -0.3 68
2017-09-07 18:00:00 25.4 32 Norte 63 Norte 0 1008.6 -0.7 65
2017-09-07 17:00:00 26.1 45 Norte 63 Norte 0 1008.8 -0.8 62
2017-09-07 16:00:00 26.3 38 Norte 65 Norte 0 1009.1 -0.7 61
2017-09-07 15:00:00 26.7 40 Norte 61 Norte 0 1009.3 -0.9 60
2017-09-07 14:00:00 26.8 32 Norte 61 Norte 0 1009.6 -0.8 58
2017-09-07 13:00:00 26.6 41 Norte 63 Norte 0 1009.8 -0.3 59
2017-09-07 12:00:00 25.9 39 Norte 63 Noroeste 0 1010.2 0.2 61
2017-09-07 11:00:00 25 37 Norte 59 Norte 0 1010.4 0.7 65
2017-09-07 10:00:00 24.2 33 Norte 55 Norte 0 1010.1 0.4 69
2017-09-07 09:00:00 23.1 32 Norte 48 Norte 0 1010 0.1 75
2017-09-07 08:00:00 22.5 30 Norte 52 Norte 0 1009.7 0 77
2017-09-07 07:00:00 22.8 30 Norte 48 Norte 0 1009.7 -0.4 76
2017-09-07 06:00:00 22.9 26 Norte 50 Norte 0 1009.9 -0.3 75
2017-09-07 05:00:00 22.8 28 Norte 54 Norte 0 1009.7 -1 74
2017-09-07 04:00:00 22.9 35 Norte 54 Norte 0 1010.1 -1.1 75
2017-09-07 03:00:00 22.9 31 Norte 50 Norte 0 1010.2 -1.4 74
2017-09-07 02:00:00 22.9 31 Norte 52 Norte 0 1010.7 -1.2 72
2017-09-07 01:00:00 23.2 33 Norte 50 Norte 0 1011.2 -0.5 70
2017-09-07 00:00:00 23 31 Norte 55 Norte 0 1011.6 1 69
2017-09-06 23:00:00 23.2 30 Norte 58 Norte 0 1011.9 1.9 69
2017-09-06 22:00:00 23.2 32 Norte 61 Norte 0 1011.7 1.5 69
2017-09-06 21:00:00 23.2 39 Norte 63 Norte 0 1010.6 0.3 69
2017-09-06 20:00:00 23.7 37 Norte 65 Norte 0 1010 -0.8 66
2017-09-06 19:00:00 24.8 37 Norte 65 Norte 0 1010.2 -1 61
2017-09-06 18:00:00 25.3 43 Norte 65 Norte 0 1010.3 -1.8 60
2017-09-06 17:00:00 26.1 41 Norte 71 Norte 0 1010.8 -2 56
2017-09-06 16:00:00 26.4 43 Norte 67 Norte 0 1011.2 -2.2 55
2017-09-06 15:00:00 26.6 42 Norte 65 Noroeste 0 1012.1 -1.8 55
2017-09-06 14:00:00 26.2 37 Norte 65 Norte 0 1012.8 -1 55
2017-09-06 13:00:00 25.6 42 Norte 59 Norte 0 1013.4 0.1 59
2017-09-06 12:00:00 24.8 36 Norte 61 Norte 0 1013.9 1.1 62
2017-09-06 11:00:00 24.4 33 Norte 59 Norte 0 1013.8 0.9 64
2017-09-06 10:00:00 23.8 36 Norte 58 Norte 0 1013.3 0.3 65
2017-09-06 09:00:00 22.9 33 Norte 50 Norte 0 1012.8 0 70
2017-09-06 08:00:00 22.5 30 Norte 50 Norte 0 1012.9 -0.1 74
2017-09-06 07:00:00 22.4 29 Norte 48 Norte 0 1013 -0.1 71
2017-09-06 06:00:00 22.6 30 Norte 48 Norte 0 1012.8 -0.9 72
2017-09-06 05:00:00 22.4 33 Norte 55 Norte 0 1013 -1 73
2017-09-06 04:00:00 22.7 31 Norte 54 Norte 0 1013.1 -1.5 71
2017-09-06 03:00:00 22.8 31 Norte 55 Norte 0 1013.7 -1.1 71
2017-09-06 02:00:00 22.7 31 Norte 58 Norte 0 1014 -0.9 72
2017-09-06 01:00:00 23.1 33 Norte 54 Norte 0 1014.6 -0.2 75
2017-09-06 00:00:00 23.1 33 Norte 59 Norte 0 1014.8 0.4 72
2017-09-05 23:00:00 23.4 32 Norte 50 Norte 0 1014.9 0.9 70
2017-09-05 22:00:00 23.5 27 Norte 55 Norte 0 1014.8 1.2 70
2017-09-05 21:00:00 23.7 37 Norte 55 Norte 0 1014.4 0.6 72
2017-09-05 20:00:00 23.9 35 Norte 63 Norte 0 1014 0.2 70
2017-09-05 19:00:00 24.9 39 Norte 61 Norte 0 1013.6 -0.4 66
2017-09-05 18:00:00 25.6 41 Norte 59 Norte 0 1013.8 -0.6 63
2017-09-05 17:00:00 26.2 46 Norte 68 Norte 0 1013.8 -0.7 61
2017-09-05 16:00:00 26.1 45 Norte 63 Norte 0 1014 -1 60
2017-09-05 15:00:00 26.4 46 Norte 65 Norte 0 1014.4 -0.7 59
2017-09-05 14:00:00 26.2 48 Norte 63 Norte 0 1014.5 -0.3 60
2017-09-05 13:00:00 25.9 43 Norte 61 Norte 0 1015 0.6 60
2017-09-05 12:00:00 25.3 46 Norte 61 Norte 0 1015.1 1.2 61
2017-09-05 11:00:00 24.4 42 Norte 61 Norte 0 1014.8 1.6 66
2017-09-05 10:00:00 23.1 35 Norte 52 Norte 0 1014.4 1.7 69
2017-09-05 09:00:00 22.5 32 Norte 50 Norte 0 1013.9 1.5 73
2017-09-05 08:00:00 22.2 29 Norte 52 Norte 0 1013.2 0.7 78
2017-09-05 07:00:00 22.5 32 Norte 50 Norte 0 1012.7 0.1 76
2017-09-05 06:00:00 23.4 26 Norte 37 Norte 0 1012.4 -0.6 64
2017-09-05 05:00:00 24.7 25 Norte 39 Norte 0 1012.5 -0.8 45
2017-09-05 04:00:00 25 22 Norte 41 Noroeste 0 1012.6 -1.1 43
2017-09-05 03:00:00 25.1 24 Norte 41 Norte 0 1013 -0.7 43
2017-09-05 02:00:00 25.5 27 Norte 45 Norte 0 1013.3 -0.6 41
2017-09-05 01:00:00 25.6 27 Norte 42 Norte 0 1013.7 0.2 43
2017-09-05 00:00:00 25.7 25 Norte 42 Norte 0 1013.7 1 44
2017-09-04 23:00:00 26.1 26 Norte 50 Norte 0 1013.9 1.7 43
2017-09-04 22:00:00 25.3 26 Norte 45 Norte 0 1013.5 1.8 49
2017-09-04 21:00:00 24.8 25 Norte 42 Norte 0 1012.7 1.1 58
2017-09-04 20:00:00 25.4 27 Norte 42 Norte 0 1012.2 0.6 58
2017-09-04 19:00:00 26.3 28 Norte 45 Norte 0 1011.7 0.1 58
2017-09-04 18:00:00 27.1 30 Norte 46 Norte 0 1011.6 -0.4 62
2017-09-04 17:00:00 27.3 36 Norte 48 Norte 0 1011.6 -0.8 61
2017-09-04 16:00:00 28.1 34 Norte 48 Norte 0 1011.6 -1 61
2017-09-04 15:00:00 27.5 36 Norte 48 Norte 0 1012 -0.7 62
2017-09-04 14:00:00 27.2 35 Norte 48 Norte 0 1012.4 -0.1 61
2017-09-04 13:00:00 26.9 31 Norte 50 Norte 0 1012.6 0.5 62
2017-09-04 12:00:00 26.1 35 Norte 48 Norte 0 1012.7 1.3 65
2017-09-04 11:00:00 24.9 36 Norte 46 Norte 0 1012.5 1.2 70
2017-09-04 10:00:00 24.2 31 Norte 45 Norte 0 1012.1 1.3 71
2017-09-04 09:00:00 23.1 28 Norte 41 Norte 0 1011.4 0.7 76
2017-09-04 08:00:00 22.7 24 Norte 37 Norte 0 1011.3 0.4 77
2017-09-04 07:00:00 22.5 22 Norte 37 Norte 0 1010.8 0 76
2017-09-04 06:00:00 22.5 23 Norte 39 Norte 0 1010.7 -0.5 77
2017-09-04 05:00:00 22.6 22 Norte 42 Norte 0 1010.9 -0.6 76
2017-09-04 04:00:00 22.5 24 Norte 41 Norte 0 1010.8 -0.8 76
2017-09-04 03:00:00 22.5 26 Norte 42 Norte 0 1011.2 -0.8 77
2017-09-04 02:00:00 22.7 26 Norte 50 Norte 0 1011.5 -0.7 75
2017-09-04 01:00:00 22.6 28 Norte 48 Norte 0 1011.6 0.1 77
2017-09-04 00:00:00 22.8 30 Norte 46 Norte 0 1012 0.6 76
2017-09-03 23:00:00 22.9 28 Norte 48 Norte 0 1012.2 0.8 76
2017-09-03 22:00:00 23.1 28 Norte 46 Norte 0 1011.5 0.1 75
2017-09-03 21:00:00 23.5 26 Norte 45 Norte 0 1011.4 0.3 72
2017-09-03 20:00:00 24 25 Norte 46 Norte 0 1011.4 0.1 70
2017-09-03 19:00:00 24.8 36 Norte 52 Norte 0 1011.4 0.5 68
2017-09-03 18:00:00 25.7 40 Norte 55 Norte 0 1011.1 -0.3 63
2017-09-03 17:00:00 25.9 44 Norte 59 Norte 0 1011.3 -0.4 61
2017-09-03 16:00:00 26.6 45 Norte 61 Norte 0 1010.9 -1.2 61
2017-09-03 15:00:00 26.7 48 Norte 61 Norte 0 1011.4 -1.6 59
2017-09-03 14:00:00 27.1 42 Norte 55 Nordeste 0 1011.7 -1 58
2017-09-03 13:00:00 26.8 41 Norte 52 Norte 0 1012.1 -0.4 59
2017-09-03 12:00:00 25.7 34 Norte 48 Norte 0 1013 1 62
2017-09-03 11:00:00 24.9 33 Norte 41 Nordeste 0 1012.7 1.2 66
2017-09-03 10:00:00 23.5 26 Norte 39 Norte 0 1012.5 0.7 76
2017-09-03 09:00:00 23.1 24 Norte 39 Norte 0 1012 0.6 74
2017-09-03 08:00:00 22.7 23 Norte 35 Norte 0 1011.5 0.1 80
2017-09-03 07:00:00 22.9 21 Norte 37 Norte 0 1011.8 0.5 79
2017-09-03 06:00:00 23.1 24 Norte 41 Norte 0 1011.4 -0.1 74
2017-09-03 05:00:00 23.2 24 Norte 39 Norte 0 1011.4 -0.9 79
2017-09-03 04:00:00 23.3 20 Norte 35 Norte 0 1011.3 -1.5 75
2017-09-03 03:00:00 23.3 21 Norte 35 Norte 0 1011.5 -1.5 77
2017-09-03 02:00:00 23.2 19 Norte 33 Norte 0 1012.3 -0.5 79
2017-09-03 01:00:00 23.6 17 Norte 33 Norte 0 1012.8 0.5 69
2017-09-03 00:00:00 23.7 23 Norte 39 Norte 0 1013 1.4 72
2017-09-02 23:00:00 23.5 25 Norte 42 Norte 0 1012.8 1.6 72
2017-09-02 22:00:00 23.3 24 Norte 41 Norte 0 1012.3 1 75
2017-09-02 21:00:00 23.7 26 Norte 41 Norte 0 1011.6 0.6 76
2017-09-02 20:00:00 24.5 23 Norte 39 Norte 0 1011.2 0.3 67
2017-09-02 19:00:00 25.5 32 Norte 42 Norte 0 1011.3 0.2 65
2017-09-02 18:00:00 25.9 33 Norte 52 Norte 0 1011 -0.4 61
2017-09-02 17:00:00 26.2 40 Norte 54 Norte 0 1010.9 -1 59
2017-09-02 16:00:00 26.7 41 Nordeste 54 Norte 0 1011.1 -1.1 57
2017-09-02 15:00:00 26.5 41 Norte 54 Nordeste 0 1011.4 -1.2 58
2017-09-02 14:00:00 26.5 40 Norte 52 Norte 0 1011.9 -0.4 57
2017-09-02 13:00:00 26.5 28 Norte 46 Norte 0 1012.2 0.1 55
2017-09-02 12:00:00 25.5 28 Norte 46 Norte 0 1012.6 0.8 56
2017-09-02 11:00:00 25.6 29 Norte 46 Norte 0 1012.3 1 58
2017-09-02 10:00:00 23.6 20 Norte 35 Norte 0 1012.1 0.8 67
2017-09-02 09:00:00 22.6 18 Norte 30 Norte 0 1011.8 0.8 71
2017-09-02 08:00:00 21.4 18 Norte 32 Norte 0 1011.3 0.2 75
2017-09-02 07:00:00 21.6 18 Norte 32 Norte 0 1011.3 0 76
2017-09-02 06:00:00 21.8 20 Norte 33 Norte 0 1011 -0.8 75
2017-09-02 05:00:00 22 22 Norte 35 Norte 0 1011.1 -1.4 77
2017-09-02 04:00:00 22 20 Norte 41 Norte 0 1011.3 -1.7 76
2017-09-02 03:00:00 22.2 23 Norte 41 Norte 0 1011.8 -1.3 79
2017-09-02 02:00:00 22.4 20 Norte 33 Norte 0 1012.5 -0.5 77
2017-09-02 01:00:00 22.3 17 Norte 35 Norte 0 1013 0.4 76
2017-09-02 00:00:00 22.5 22 Norte 41 Norte 0 1013.1 1.1 75
2017-09-01 23:00:00 22.7 26 Norte 45 Norte 0 1013 1.5 75
2017-09-01 22:00:00 22.8 25 Norte 41 Norte 0 1012.6 1.4 75
2017-09-01 21:00:00 23.2 26 Norte 39 Norte 0 1012 1.1 74
2017-09-01 20:00:00 23.8 25 Norte 42 Norte 0 1011.5 0.5 63
2017-09-01 19:00:00 24.8 26 Norte 46 Norte 0 1011.2 0.3 60
2017-09-01 18:00:00 25.7 27 Norte 50 Norte 0 1010.9 -0.6 56
2017-09-01 17:00:00 26.1 31 Norte 54 Norte 0 1011 -1.2 54
2017-09-01 16:00:00 26.5 37 Norte 54 Norte 0 1010.9 -1.6 52
2017-09-01 15:00:00 26.5 35 Norte 55 Norte 0 1011.5 -1.3 56
2017-09-01 14:00:00 24.6 31 Norte 50 Norte 0 1012.2 -0.8 66
2017-09-01 13:00:00 26.6 33 Norte 50 Norte 0 1012.5 -0.3 55
2017-09-01 12:00:00 26.9 26 Norte 42 Norte 0 1012.8 0.9 50
2017-09-01 11:00:00 25.4 23 Noroeste 39 Noroeste 0 1013 1.4 51
2017-09-01 10:00:00 23.6 21 Norte 41 Norte 0 1012.8 1.4 62
2017-09-01 09:00:00 22.7 23 Norte 37 Norte 0 1011.9 0.7 65
2017-09-01 08:00:00 22 23 Norte 42 Norte 0 1011.6 0.7 67
2017-09-01 07:00:00 21.9 19 Norte 37 Norte 0 1011.4 0.1 70
2017-09-01 06:00:00 22.3 15 Norte 39 Norte 0 1011.2 0 69
2017-09-01 05:00:00 22.6 21 Norte 41 Norte 0 1010.9 -0.6 64
2017-09-01 04:00:00 21.9 21 Norte 35 Norte 0 1011.3 -0.4 72
2017-09-01 03:00:00 22.3 23 Norte 45 Norte 0 1011.2 -0.4 76
2017-09-01 02:00:00 22.2 20 Norte 42 Norte 0.1 1011.5 -0.1 83
2017-09-01 01:00:00 23.2 25 Norte 45 Norte 0 1011.7 0.5 79
2017-09-01 00:00:00 23.5 24 Norte 52 Norte 0 1011.6 0.9 75
2017-08-31 23:00:00 23.8 24 Norte 50 Norte 0 1011.6 1.2 72
2017-08-31 22:00:00 23.9 27 Norte 48 Noroeste 0 1011.2 1 70
2017-08-31 21:00:00 24.3 26 Norte 58 Norte 0 1010.7 0.4 64
2017-08-31 20:00:00 25 31 Norte 52 Noroeste 0 1010.4 0.1 61
2017-08-31 19:00:00 26.1 32 Noroeste 50 Norte 0 1010.2 0.2 55
2017-08-31 18:00:00 26.6 30 Norte 54 Norte 0 1010.3 -0.2 52
2017-08-31 17:00:00 26.7 33 Norte 58 Norte 0 1010.3 -1 54
2017-08-31 16:00:00 26.7 34 Norte 58 Norte 0 1010 -1.4 54
2017-08-31 15:00:00 25.5 35 Norte 55 Norte 0 1010.5 -1.3 62
2017-08-31 14:00:00 24.2 31 Norte 55 Norte 0 1011.3 -0.4 73
2017-08-31 13:00:00 26.7 37 Norte 59 Norte 0 1011.4 0.4 57
2017-08-31 12:00:00 26.5 40 Norte 59 Norte 0 1011.8 1.5 54
2017-08-31 11:00:00 25 35 Norte 55 Norte 0 1011.7 1.8 61
2017-08-31 10:00:00 23.7 28 Norte 52 Norte 0 1011 1.1 76
2017-08-31 09:00:00 23.6 30 Norte 48 Norte 0 1010.3 0.7 70
2017-08-31 08:00:00 23.1 30 Norte 46 Norte 0 1009.9 0.4 69
2017-08-31 07:00:00 22.9 27 Norte 45 Noroeste 0 1009.9 -0.2 72
2017-08-31 06:00:00 23 27 Norte 61 Norte 0 1009.6 -1.1 69
2017-08-31 05:00:00 23 27 Norte 54 Noroeste 0 1009.5 -1.6 67
2017-08-31 04:00:00 22.7 23 Norte 45 Norte 0 1010.1 -1.3 74
2017-08-31 03:00:00 22.5 26 Norte 42 Norte 0 1010.7 -1 74
2017-08-31 02:00:00 22.7 23 Norte 45 Norte 0 1011.1 -0.7 77
2017-08-31 01:00:00 22.9 26 Norte 42 Norte 0 1011.4 -0.1 73
2017-08-31 00:00:00 23 23 Norte 42 Norte 0 1011.7 0.5 68
2017-08-30 23:00:00 23.1 24 Norte 42 Norte 0 1011.8 0.9 74
2017-08-30 22:00:00 23.5 23 Norte 45 Norte 0 1011.5 0.7 74
2017-08-30 21:00:00 23.9 25 Norte 46 Norte 0 1011.2 0.3 73
2017-08-30 20:00:00 24.4 26 Norte 45 Norte 0 1010.9 -0.1 64
2017-08-30 19:00:00 25.5 26 Norte 52 Norte 0 1010.8 -0.4 59
2017-08-30 18:00:00 26.2 33 Norte 50 Norte 0 1010.9 -1 56
2017-08-30 17:00:00 25.9 29 Norte 58 Norte 0 1011 -1.3 58
2017-08-30 16:00:00 27.2 42 Norte 58 Norte 0 1011.2 -1.5 56
2017-08-30 15:00:00 27.4 45 Norte 55 Norte 0 1011.9 -0.9 55
2017-08-30 14:00:00 26.4 32 Norte 54 Norte 0 1012.3 -0.4 54
2017-08-30 13:00:00 26 37 Norte 50 Norte 0 1012.7 0.3 61
2017-08-30 12:00:00 26.3 32 Norte 50 Norte 0 1012.8 0.6 58
2017-08-30 11:00:00 25.5 28 Norte 45 Norte 0 1012.7 1 57
2017-08-30 10:00:00 24.1 26 Norte 42 Norte 0 1012.4 1.1 67
2017-08-30 09:00:00 22.9 23 Norte 37 Norte 0 1012.2 1.3 75
2017-08-30 08:00:00 22.3 18 Norte 33 Norte 0 1011.7 0.4 79
2017-08-30 07:00:00 22.6 21 Norte 39 Norte 0 1011.3 -0.5 78
2017-08-30 06:00:00 22.8 20 Norte 33 Norte 0 1010.9 -1.1 69
2017-08-30 05:00:00 22.3 15 Norte 37 Norte 0 1011.3 -1 71
2017-08-30 04:00:00 22.5 22 Norte 35 Norte 0 1011.8 -0.8 73
2017-08-30 03:00:00 22.4 16 Norte 35 Norte 0 1012 -0.5 73
2017-08-30 02:00:00 22.7 23 Norte 42 Norte 0 1012.3 -0.1 75
2017-08-30 01:00:00 22.9 23 Norte 39 Norte 0 1012.6 0.6 75
2017-08-30 00:00:00 22.9 23 Norte 41 Norte 0 1012.5 0.9 75
2017-08-29 23:00:00 23.2 22 Norte 37 Norte 0 1012.4 0.8 70
2017-08-29 22:00:00 23.2 23 Norte 41 Norte 0 1012 0.7 70
2017-08-29 21:00:00 23.5 22 Norte 37 Norte 0 1011.6 0.3 68
2017-08-29 20:00:00 24.6 21 Norte 41 Norte 0 1011.6 0.1 61
2017-08-29 19:00:00 25.1 31 Norte 48 Norte 0 1011.3 -0.5 61
2017-08-29 18:00:00 25.8 40 Norte 52 Nordeste 0 1011.3 -0.8 58
2017-08-29 17:00:00 26.1 35 Norte 54 Norte 0 1011.5 -1 56
2017-08-29 16:00:00 26.6 35 Norte 55 Norte 0 1011.8 -1.2 54
2017-08-29 15:00:00 26.9 39 Norte 54 Norte 0 1012.1 -1.1 51
2017-08-29 14:00:00 26.7 39 Norte 52 Norte 0 1012.5 -0.8 53
2017-08-29 13:00:00 26.1 37 Norte 54 Norte 0 1013 0.3 53
2017-08-29 12:00:00 25.9 38 Norte 50 Norte 0 1013.2 0.8 58
2017-08-29 11:00:00 24.9 27 Norte 52 Norte 0 1013.3 1.3 60
2017-08-29 10:00:00 23.9 28 Norte 42 Norte 0 1012.7 1 68
2017-08-29 09:00:00 22.7 22 Norte 39 Norte 0 1012.4 0.7 70
2017-08-29 08:00:00 21.9 22 Norte 42 Norte 0 1012 0.1 74
2017-08-29 07:00:00 21.6 24 Norte 35 Norte 0 1011.7 -0.3 77
2017-08-29 06:00:00 21.7 21 Norte 32 Norte 0 1011.7 -0.9 77
2017-08-29 05:00:00 22 17 Norte 35 Norte 0 1011.9 -1.2 72
2017-08-29 04:00:00 22 19 Norte 35 Norte 0 1012 -1.7 80
2017-08-29 03:00:00 22.4 22 Norte 35 Norte 0 1012.6 -1.3 75
2017-08-29 02:00:00 22.1 21 Norte 37 Norte 0 1013.1 -0.9 70
2017-08-29 01:00:00 22.5 27 Norte 42 Norte 0 1013.7 0.2 75
2017-08-29 00:00:00 22.5 21 Norte 39 Norte 0 1013.9 1 73
2017-08-28 23:00:00 22.8 27 Norte 41 Norte 0 1014 1.3 74
2017-08-28 22:00:00 23 22 Norte 45 Norte 0 1013.5 1.2 73
2017-08-28 21:00:00 23.2 25 Norte 45 Norte 0 1012.9 0.4 70
2017-08-28 20:00:00 23.6 28 Norte 52 Norte 0 1012.7 0.2 69
2017-08-28 19:00:00 24.6 34 Norte 54 Norte 0 1012.3 -0.4 64
2017-08-28 18:00:00 25.2 37 Norte 54 Norte 0 1012.5 -0.2 61
2017-08-28 17:00:00 25.8 43 Norte 55 Nordeste 0 1012.5 -0.8 61
2017-08-28 16:00:00 26 44 Norte 58 Norte 0 1012.7 -0.8 63
2017-08-28 15:00:00 26.2 44 Norte 55 Norte 0 1012.7 -0.9 60
2017-08-28 14:00:00 26 33 Norte 55 Norte 0 1013.3 -0.1 61
2017-08-28 13:00:00 25.4 40 Norte 54 Norte 0 1013.5 1 64
2017-08-28 12:00:00 24.8 38 Norte 52 Norte 0 1013.6 1.6 68
2017-08-28 11:00:00 24.3 37 Norte 50 Norte 0 1013.4 2 71
2017-08-28 10:00:00 23.6 30 Norte 46 Norte 0 1012.5 1.2 74
2017-08-28 09:00:00 23.3 30 Norte 45 Norte 0 1012 0.6 76
2017-08-28 08:00:00 22.4 21 Norte 37 Norte 0 1011.4 -0.3 81
2017-08-28 07:00:00 22.4 22 Norte 32 Norte 0 1011.3 -0.8 80
2017-08-28 06:00:00 22.4 18 Norte 32 Norte 0 1011.4 -1.1 81
2017-08-28 05:00:00 22.5 19 Norte 28 Norte 0 1011.7 -1.2 82
2017-08-28 04:00:00 22.6 17 Norte 30 Norte 0 1012.1 -1 82
2017-08-28 03:00:00 23.2 21 Norte 37 Norte 0 1012.5 -0.3 75
2017-08-28 02:00:00 23.1 21 Norte 37 Norte 0 1012.9 0.8 73
2017-08-28 01:00:00 23.2 22 Norte 39 Norte 0 1013.1 2.5 77
2017-08-28 00:00:00 23.3 28 Norte 46 Norte 0 1012.8 3.1 76
2017-08-27 23:00:00 23.3 28 Norte 50 Norte 0 1012.1 2.9 74
2017-08-27 22:00:00 23.6 31 Norte 48 Norte 0 1010.6 1.2 76
2017-08-27 21:00:00 23.8 30 Norte 55 Norte 0 1009.7 0.1 74
2017-08-27 20:00:00 24.4 30 Norte 54 Norte 0 1009.2 -0.2 70
2017-08-27 19:00:00 24.9 31 Norte 54 Norte 0 1009.4 0.1 70
2017-08-27 18:00:00 25.4 32 Norte 52 Norte 0 1009.6 0.2 66
2017-08-27 17:00:00 25.6 34 Norte 63 Norte 0 1009.4 -0.9 64
2017-08-27 16:00:00 27.1 50 Norte 63 Norte 0 1009.3 -1.4 62
2017-08-27 15:00:00 26.9 48 Norte 59 Norte 0 1009.4 -1.3 62
2017-08-27 14:00:00 27 37 Norte 59 Norte 0 1010.3 -0.3 62
2017-08-27 13:00:00 26.7 36 Norte 58 Norte 0 1010.7 0.5 62
2017-08-27 12:00:00 26.2 40 Norte 52 Norte 0 1010.7 1 62
2017-08-27 11:00:00 25.3 32 Norte 50 Norte 0 1010.6 1.5 65
2017-08-27 10:00:00 24.2 31 Norte 50 Norte 0 1010.2 1.8 70
2017-08-27 09:00:00 23.3 28 Norte 46 Norte 0 1009.7 1.2 75
2017-08-27 08:00:00 22.5 26 Norte 42 Norte 0 1009.1 0.7 78
2017-08-27 07:00:00 22.6 26 Norte 45 Norte 0 1008.4 -0.4 77
2017-08-27 06:00:00 22.7 30 Norte 45 Norte 0 1008.5 -0.6 76
2017-08-27 05:00:00 22.8 27 Norte 46 Norte 0 1008.4 -0.7 79
2017-08-27 04:00:00 23 28 Norte 48 Norte 0 1008.8 -0.3 81
2017-08-27 03:00:00 23.2 32 Norte 46 Norte 0 1009.1 0.1 79
2017-08-27 02:00:00 23.3 27 Norte 42 Norte 0 1009.1 0.9 79
2017-08-27 01:00:00 23.7 29 Norte 41 Norte 0 1009.1 1.1 78
2017-08-27 00:00:00 23.7 22 Norte 39 Norte 0 1009 1.4 79
2017-08-26 23:00:00 24.6 22 Norte 41 Norte 0 1008.2 1.1 69
2017-08-26 22:00:00 26.2 24 Norte 42 Norte 0 1008 0.7 49
2017-08-26 21:00:00 27.4 32 Norte 42 Norte 0 1007.6 0.5 38
2017-08-26 20:00:00 27.6 29 Norte 46 Norte 0 1007.1 0 46
2017-08-26 19:00:00 28.2 26 Norte 48 Norte 0 1007.3 -0.1 45
2017-08-26 18:00:00 28 32 Norte 52 Nordeste 0 1007.1 -0.7 50
2017-08-26 17:00:00 28.3 40 Norte 52 Norte 0 1007.1 -1 59
2017-08-26 16:00:00 28.5 38 Norte 52 Norte 0 1007.4 -0.4 60
2017-08-26 15:00:00 27.4 44 Norte 55 Norte 0 1007.8 -0.4 64
2017-08-26 14:00:00 27.1 47 Norte 59 Norte 0 1008.1 -0.1 66
2017-08-26 13:00:00 27 36 Norte 58 Norte 0 1007.8 -0.5 65
2017-08-26 12:00:00 26.1 37 Norte 54 Norte 0 1008.2 0.4 68
2017-08-26 11:00:00 25.8 33 Norte 48 Norte 0 1008.2 0.9 70
2017-08-26 10:00:00 25.2 18 Norte 28 Norte 0 1008.3 0.7 71
2017-08-26 09:00:00 23.8 17 Norte 30 Norte 0 1007.8 -0.5 79
2017-08-26 08:00:00 22.8 19 Norte 30 Norte 0 1007.3 -1.2 83
2017-08-26 07:00:00 22.7 21 Norte 32 Norte 0 1007.6 -0.6 85
2017-08-26 06:00:00 23 13 Norte 22 Nordeste 0 1008.3 -0.3 85
2017-08-26 05:00:00 23 16 Norte 22 Nordeste 0 1008.5 -0.4 86
2017-08-26 04:00:00 23.1 14 Norte 22 Norte 0 1008.2 -1.1 86
2017-08-26 03:00:00 23.3 14 Norte 22 Norte 0 1008.6 -1.1 85
2017-08-26 02:00:00 23.5 19 Norte 28 Norte 0 1008.9 -0.5 85
2017-08-26 01:00:00 24 13 Norte 18 Norte 0 1009.3 0.6 84
2017-08-26 00:00:00 24.3 7 Norte 18 Norte 0 1009.7 1.5 83
2017-08-25 23:00:00 24.7 0 Calma 8 Norte 0 1009.4 1.8 81
2017-08-25 22:00:00 24.4 0 Calma 21 Sudeste 0 1008.7 1.4 82
2017-08-25 21:00:00 24.6 13 Sudeste 28 Sudeste 0 1008.2 0.7 83
2017-08-25 20:00:00 26.3 8 Este 21 Nordeste 0 1007.6 0.4 74
2017-08-25 19:00:00 27.8 15 Norte 24 Nordeste 0 1007.3 -0.1 67
2017-08-25 18:00:00 28.2 18 Nordeste 33 Norte 0 1007.5 -0.3 64
2017-08-25 17:00:00 29.2 26 Norte 35 Nordeste 0 1007.2 -1.3 60
2017-08-25 16:00:00 28.1 34 Nordeste 48 Norte 0 1007.4 -1.5 66
2017-08-25 15:00:00 27.9 40 Nordeste 46 Nordeste 0 1007.8 -1 67
2017-08-25 14:00:00 27.2 37 Norte 46 Nordeste 0 1008.5 0.5 69
2017-08-25 13:00:00 27.1 34 Norte 41 Norte 0 1008.9 1.4 71
2017-08-25 12:00:00 27.6 24 Norte 32 Nordeste 0 1008.8 1 69
2017-08-25 11:00:00 27 10 Nordeste 21 Nordeste 0 1008 1.1 73
2017-08-25 10:00:00 25.8 13 Nordeste 21 Nordeste 0 1007.5 0.4 78
2017-08-25 09:00:00 23.6 6 Norte 15 Norte 0 1007.8 0.4 86
2017-08-25 08:00:00 22.7 11 Nordeste 18 Este 0 1006.9 -1.8 91
2017-08-25 07:00:00 22.8 9 Norte 17 Norte 0 1007.1 -1.7 91
2017-08-25 06:00:00 22.8 9 Nordeste 28 Sudeste 0 1007.4 -0.5 92
2017-08-25 05:00:00 23 12 Sudeste 32 Sudeste 0 1008.7 0.9 92
2017-08-25 04:00:00 23 9 Nordeste 32 Norte 0 1008.8 0.7 91
2017-08-25 03:00:00 23.1 18 Norte 35 Norte 0 1007.9 0.1 91
2017-08-25 02:00:00 23.3 18 Norte 30 Norte 0 1007.8 0.5 89
2017-08-25 01:00:00 23.5 18 Norte 33 Norte 0 1008.1 1.1 89
2017-08-25 00:00:00 23.6 19 Norte 33 Norte 0 1007.8 1.5 89
2017-08-24 23:00:00 24.1 18 Norte 32 Norte 0 1007.3 1.3 85
2017-08-24 22:00:00 24.3 22 Norte 32 Norte 0 1007 0.6 84
2017-08-24 21:00:00 24.4 19 Norte 37 Norte 0 1006.3 -0.3 82
2017-08-24 20:00:00 25.5 23 Norte 33 Norte 0 1006 -0.7 76
2017-08-24 19:00:00 25.8 21 Norte 35 Norte 0 1006.4 -0.5 76
2017-08-24 18:00:00 26.5 27 Norte 39 Norte 0 1006.6 0.1 74
2017-08-24 17:00:00 26.5 32 Norte 42 Nordeste 0 1006.7 -0.2 73
2017-08-24 16:00:00 27.1 32 Norte 48 Norte 0 1006.9 -1.5 70
2017-08-24 15:00:00 28.7 40 Nordeste 48 Nordeste 0 1006.5 -1.6 64
2017-08-24 14:00:00 28.6 31 Norte 45 Norte 0 1006.9 -0.8 63
2017-08-24 13:00:00 26.5 39 Norte 52 Norte 0 1008.4 1.4 70
2017-08-24 12:00:00 26.7 42 Norte 50 Norte 0 1008.1 1.4 69
2017-08-24 11:00:00 25.8 39 Norte 48 Norte 0 1007.7 0.4 72
2017-08-24 10:00:00 24.9 26 Norte 45 Norte 0 1007 0.2 74
2017-08-24 09:00:00 23.3 26 Norte 37 Norte 0 1006.7 0.1 80
2017-08-24 08:00:00 22.4 23 Norte 42 Norte 0 1007.3 2 84
2017-08-24 07:00:00 22.3 24 Norte 41 Norte 0 1006.8 0.7 85
2017-08-24 06:00:00 22.5 25 Norte 50 Norte 0 1006.6 0.5 85
2017-08-24 05:00:00 22.5 26 Norte 45 Norte 0 1005.3 -0.8 83
2017-08-24 04:00:00 22.8 27 Norte 45 Norte 0 1006.1 -0.8 82
2017-08-24 03:00:00 23.4 27 Norte 50 Norte 0 1006.1 -1.7 76
2017-08-24 02:00:00 25.5 28 Norte 45 Norte 0 1006.1 -0.9 54
2017-08-24 01:00:00 24.3 27 Norte 46 Norte 0 1006.9 0.6 65
2017-08-24 00:00:00 24.9 29 Norte 48 Norte 0 1007.8 2.1 59
2017-08-23 23:00:00 23.3 31 Norte 55 Norte 0 1007 1.5 76
2017-08-23 22:00:00 23.2 33 Norte 52 Norte 0 1006.3 0.8 81
2017-08-23 21:00:00 23.6 29 Norte 50 Norte 0 1005.7 -0.4 79
2017-08-23 20:00:00 24.7 30 Norte 50 Norte 0 1005.5 -0.4 74
2017-08-23 19:00:00 26 31 Norte 52 Norte 0 1005.5 -0.6 68
2017-08-23 18:00:00 26.9 35 Norte 54 Norte 0 1006.1 -0.5 65
2017-08-23 17:00:00 28.2 38 Norte 54 Norte 0 1005.9 -1.2 60
2017-08-23 16:00:00 29.2 34 Norte 55 Norte 0 1006.1 -1.5 56
2017-08-23 15:00:00 29.6 35 Norte 54 Norte 0 1006.6 -1 55
2017-08-23 14:00:00 28.6 37 Norte 54 Norte 0 1007.1 -0.5 58
2017-08-23 13:00:00 29.6 35 Norte 50 Norte 0 1007.6 0.5 51
2017-08-23 12:00:00 30.4 39 Norte 46 Norte 0 1007.6 0.4 52
2017-08-23 11:00:00 29.5 30 Norte 42 Norte 0 1007.6 1.3 51
2017-08-23 10:00:00 27.5 26 Norte 42 Norte 0 1007.1 1 56
2017-08-23 09:00:00 25.3 22 Norte 37 Norte 0 1007.2 1.1 67
2017-08-23 08:00:00 26.9 21 Norte 37 Norte 0 1006.3 0 34
2017-08-23 07:00:00 29.1 21 Norte 37 Norte 0 1006.1 -0.3 19
2017-08-23 06:00:00 29.3 18 Norte 37 Norte 0 1006.1 -1.1 19
2017-08-23 05:00:00 30 25 Norte 42 Norte 0 1006.3 -1.4 19
2017-08-23 04:00:00 30.3 24 Norte 37 Norte 0 1006.4 -1.7 20
2017-08-23 03:00:00 30.5 25 Norte 45 Norte 0 1007.2 -0.8 13
2017-08-23 02:00:00 29.4 24 Norte 42 Norte 0 1007.7 -- 10
2017-08-23 01:00:00 29.9 29 Norte 50 Norte 0 1008.1 -- 9
2017-08-23 00:00:00 30 30 Norte -- -- -- 1008 0.8 11
2017-08-22 23:00:00 -- -- -- -- -- -- -- -- --
2017-08-22 22:00:00 -- -- -- -- -- -- -- -- --
2017-08-22 21:00:00 29 28 Norte 50 Norte 0 1007.2 0.5 28
2017-08-22 20:00:00 29.9 29 Norte 50 Norte 0 1006.9 0.1 23
2017-08-22 19:00:00 28.9 34 Norte 50 Norte 0 1006.7 -0.4 50
2017-08-22 18:00:00 31.4 34 Norte 50 Norte 0 1006.7 -1 36
2017-08-22 17:00:00 31.8 30 Norte 54 Norte 0 1006.8 -2.3 37
2017-08-22 16:00:00 30.9 33 Norte 50 Norte 0 1007.1 -2.3 44
2017-08-22 15:00:00 32.6 24 Norte 46 Norte 0 1007.7 -2.1 38
2017-08-22 14:00:00 27.9 38 Norte 48 Norte 0 1009.1 -0.2 65
2017-08-22 13:00:00 28.7 36 Nordeste 45 Nordeste 0 1009.4 0.2 60
2017-08-22 12:00:00 29.4 32 Norte 41 Norte 0 1009.8 0.9 56
2017-08-22 11:00:00 28.8 28 Norte 37 Norte 0 1009.3 0.5 55
2017-08-22 10:00:00 26.1 21 Norte 32 Norte 0 1009.2 0.8 62
2017-08-22 09:00:00 27.6 21 Norte 30 Norte 0 1008.9 0.7 31
2017-08-22 08:00:00 23.6 19 Norte 28 Norte 0 1008.8 0.7 70
2017-08-22 07:00:00 24.5 17 Norte 30 Norte 0 1008.4 -0.2 54
2017-08-22 06:00:00 24.4 18 Norte 32 Norte 0 1008.2 -0.4 58
2017-08-22 05:00:00 24.8 23 Norte 33 Norte 0 1008.1 -1 55
2017-08-22 04:00:00 25.6 17 Norte 33 Nordeste 0 1008.6 -0.5 41
2017-08-22 03:00:00 26.3 25 Norte 35 Norte 0 1008.6 -0.6 33
2017-08-22 02:00:00 24.1 19 Norte 32 Norte 0 1009.1 0.4 72
2017-08-22 01:00:00 25 19 Norte 30 Norte 0 1009.1 0.7 64
2017-08-22 00:00:00 25.6 19 Norte 32 Norte 0 1009.2 1.2 58